sensor_id;sensor_type;location;lat;lon;timestamp;P1;durP1;ratioP1;P2;durP2;ratioP2
966;SDS011;56108;48.730;9.304;2023-07-31T00:01:00;1.90;;;1.75;;
966;SDS011;56108;48.730;9.304;2023-07-31T00:03:08;2.05;;;1.88;;
966;SDS011;56108;48.730;9.304;2023-07-31T00:05:17;2.63;;;2.33;;
966;SDS011;56108;48.730;9.304;2023-07-31T00:07:25;2.30;;;1.95;;
966;SDS011;56108;48.730;9.304;2023-07-31T00:09:36;1.77;;;1.40;;
966;SDS011;56108;48.730;9.304;2023-07-31T00:11:44;3.03;;;1.70;;
966;SDS011;56108;48.730;9.304;2023-07-31T00:13:52;1.75;;;1.65;;
966;SDS011;56108;48.730;9.304;2023-07-31T00:16:01;2.25;;;2.03;;
966;SDS011;56108;48.730;9.304;2023-07-31T00:18:09;3.42;;;2.08;;
966;SDS011;56108;48.730;9.304;2023-07-31T00:20:17;2.25;;;2.05;;
966;SDS011;56108;48.730;9.304;2023-07-31T00:22:27;2.28;;;1.90;;
966;SDS011;56108;48.730;9.304;2023-07-31T00:24:36;3.42;;;2.15;;
966;SDS011;56108;48.730;9.304;2023-07-31T00:26:44;1.98;;;1.70;;
966;SDS011;56108;48.730;9.304;2023-07-31T00:28:52;3.78;;;2.10;;
966;SDS011;56108;48.730;9.304;2023-07-31T00:30:59;2.53;;;2.13;;
966;SDS011;56108;48.730;9.304;2023-07-31T00:33:08;3.67;;;1.92;;
966;SDS011;56108;48.730;9.304;2023-07-31T00:35:17;2.40;;;2.20;;
966;SDS011;56108;48.730;9.304;2023-07-31T00:37:28;2.40;;;2.20;;
966;SDS011;56108;48.730;9.304;2023-07-31T00:39:36;2.63;;;2.20;;
966;SDS011;56108;48.730;9.304;2023-07-31T00:41:44;6.82;;;2.63;;
966;SDS011;56108;48.730;9.304;2023-07-31T00:43:54;3.97;;;2.40;;
966;SDS011;56108;48.730;9.304;2023-07-31T00:46:04;2.47;;;2.28;;
966;SDS011;56108;48.730;9.304;2023-07-31T00:48:12;2.30;;;2.10;;
966;SDS011;56108;48.730;9.304;2023-07-31T00:50:21;2.35;;;1.90;;
966;SDS011;56108;48.730;9.304;2023-07-31T00:52:32;2.03;;;1.90;;
966;SDS011;56108;48.730;9.304;2023-07-31T00:54:41;3.20;;;2.75;;
966;SDS011;56108;48.730;9.304;2023-07-31T00:56:49;4.60;;;2.47;;
966;SDS011;56108;48.730;9.304;2023-07-31T00:59:00;2.65;;;2.45;;
966;SDS011;56108;48.730;9.304;2023-07-31T01:01:10;2.95;;;2.20;;
966;SDS011;56108;48.730;9.304;2023-07-31T01:03:18;3.38;;;2.20;;
966;SDS011;56108;48.730;9.304;2023-07-31T01:05:29;2.25;;;2.10;;
966;SDS011;56108;48.730;9.304;2023-07-31T01:07:49;2.40;;;2.20;;
966;SDS011;56108;48.730;9.304;2023-07-31T01:10:04;2.53;;;2.17;;
966;SDS011;56108;48.730;9.304;2023-07-31T01:12:15;2.22;;;1.90;;
966;SDS011;56108;48.730;9.304;2023-07-31T01:14:24;2.40;;;2.20;;
966;SDS011;56108;48.730;9.304;2023-07-31T01:16:34;2.58;;;2.10;;
966;SDS011;56108;48.730;9.304;2023-07-31T01:18:43;2.67;;;2.22;;
966;SDS011;56108;48.730;9.304;2023-07-31T01:20:53;4.25;;;2.55;;
966;SDS011;56108;48.730;9.304;2023-07-31T01:23:16;2.72;;;2.47;;
966;SDS011;56108;48.730;9.304;2023-07-31T01:28:13;4.35;;;2.80;;
966;SDS011;56108;48.730;9.304;2023-07-31T01:30:25;2.75;;;2.55;;
966;SDS011;56108;48.730;9.304;2023-07-31T01:32:42;2.22;;;2.05;;
966;SDS011;56108;48.730;9.304;2023-07-31T01:34:54;3.42;;;2.30;;
966;SDS011;56108;48.730;9.304;2023-07-31T01:37:05;3.75;;;2.65;;
966;SDS011;56108;48.730;9.304;2023-07-31T01:39:13;3.80;;;3.10;;
966;SDS011;56108;48.730;9.304;2023-07-31T01:41:25;2.50;;;2.30;;
966;SDS011;56108;48.730;9.304;2023-07-31T01:43:33;3.13;;;2.80;;
966;SDS011;56108;48.730;9.304;2023-07-31T01:45:42;4.00;;;2.30;;
966;SDS011;56108;48.730;9.304;2023-07-31T01:47:50;2.65;;;2.45;;
966;SDS011;56108;48.730;9.304;2023-07-31T01:49:58;3.72;;;2.40;;
966;SDS011;56108;48.730;9.304;2023-07-31T01:52:06;3.15;;;2.30;;
966;SDS011;56108;48.730;9.304;2023-07-31T01:54:14;3.90;;;2.40;;
966;SDS011;56108;48.730;9.304;2023-07-31T01:56:25;2.05;;;1.85;;
966;SDS011;56108;48.730;9.304;2023-07-31T01:58:33;2.72;;;2.35;;
966;SDS011;56108;48.730;9.304;2023-07-31T02:00:41;3.20;;;2.30;;
966;SDS011;56108;48.730;9.304;2023-07-31T02:02:51;2.00;;;1.90;;
966;SDS011;56108;48.730;9.304;2023-07-31T02:04:59;6.00;;;2.22;;
966;SDS011;56108;48.730;9.304;2023-07-31T02:07:07;2.65;;;2.45;;
966;SDS011;56108;48.730;9.304;2023-07-31T02:09:15;2.55;;;2.35;;
966;SDS011;56108;48.730;9.304;2023-07-31T02:11:27;6.28;;;2.85;;
966;SDS011;56108;48.730;9.304;2023-07-31T02:13:35;4.22;;;2.65;;
966;SDS011;56108;48.730;9.304;2023-07-31T02:15:41;2.65;;;2.35;;
966;SDS011;56108;48.730;9.304;2023-07-31T02:17:49;2.20;;;2.10;;
966;SDS011;56108;48.730;9.304;2023-07-31T02:19:57;1.92;;;1.83;;
966;SDS011;56108;48.730;9.304;2023-07-31T02:22:05;2.25;;;2.05;;
966;SDS011;56108;48.730;9.304;2023-07-31T02:24:13;4.40;;;2.50;;
966;SDS011;56108;48.730;9.304;2023-07-31T02:26:23;1.70;;;1.60;;
966;SDS011;56108;48.730;9.304;2023-07-31T02:28:34;2.97;;;1.75;;
966;SDS011;56108;48.730;9.304;2023-07-31T02:30:44;2.10;;;1.90;;
966;SDS011;56108;48.730;9.304;2023-07-31T02:32:53;2.10;;;2.00;;
966;SDS011;56108;48.730;9.304;2023-07-31T02:35:04;2.65;;;1.83;;
966;SDS011;56108;48.730;9.304;2023-07-31T02:37:13;2.35;;;2.15;;
966;SDS011;56108;48.730;9.304;2023-07-31T02:39:20;2.22;;;2.03;;
966;SDS011;56108;48.730;9.304;2023-07-31T02:41:29;1.90;;;1.80;;
966;SDS011;56108;48.730;9.304;2023-07-31T02:43:39;2.30;;;2.00;;
966;SDS011;56108;48.730;9.304;2023-07-31T02:45:50;5.18;;;2.03;;
966;SDS011;56108;48.730;9.304;2023-07-31T02:48:01;2.50;;;2.30;;
966;SDS011;56108;48.730;9.304;2023-07-31T02:50:09;5.28;;;1.90;;
966;SDS011;56108;48.730;9.304;2023-07-31T02:52:18;1.88;;;1.67;;
966;SDS011;56108;48.730;9.304;2023-07-31T02:54:26;2.30;;;1.90;;
966;SDS011;56108;48.730;9.304;2023-07-31T02:56:34;4.97;;;2.22;;
966;SDS011;56108;48.730;9.304;2023-07-31T02:58:46;1.75;;;1.65;;
966;SDS011;56108;48.730;9.304;2023-07-31T03:00:55;2.85;;;2.33;;
966;SDS011;56108;48.730;9.304;2023-07-31T03:03:03;2.50;;;2.30;;
966;SDS011;56108;48.730;9.304;2023-07-31T03:05:11;3.08;;;1.90;;
966;SDS011;56108;48.730;9.304;2023-07-31T03:07:22;2.42;;;2.33;;
966;SDS011;56108;48.730;9.304;2023-07-31T03:09:30;2.63;;;1.88;;
966;SDS011;56108;48.730;9.304;2023-07-31T03:11:38;2.75;;;2.15;;
966;SDS011;56108;48.730;9.304;2023-07-31T03:13:49;5.07;;;2.47;;
966;SDS011;56108;48.730;9.304;2023-07-31T03:15:57;6.55;;;2.22;;
966;SDS011;56108;48.730;9.304;2023-07-31T03:18:05;3.25;;;1.90;;
966;SDS011;56108;48.730;9.304;2023-07-31T03:20:13;2.38;;;2.08;;
966;SDS011;56108;48.730;9.304;2023-07-31T03:22:24;5.25;;;2.50;;
966;SDS011;56108;48.730;9.304;2023-07-31T03:24:32;2.65;;;2.17;;
966;SDS011;56108;48.730;9.304;2023-07-31T03:26:40;2.17;;;2.03;;
966;SDS011;56108;48.730;9.304;2023-07-31T03:28:51;4.00;;;2.10;;
966;SDS011;56108;48.730;9.304;2023-07-31T03:30:59;2.53;;;2.33;;
966;SDS011;56108;48.730;9.304;2023-07-31T03:33:07;2.10;;;2.00;;
966;SDS011;56108;48.730;9.304;2023-07-31T03:35:15;2.97;;;2.65;;
966;SDS011;56108;48.730;9.304;2023-07-31T03:37:23;4.10;;;2.50;;
966;SDS011;56108;48.730;9.304;2023-07-31T03:39:31;3.03;;;2.42;;
966;SDS011;56108;48.730;9.304;2023-07-31T03:41:39;2.40;;;2.20;;
966;SDS011;56108;48.730;9.304;2023-07-31T03:43:49;2.55;;;2.28;;
966;SDS011;56108;48.730;9.304;2023-07-31T03:46:00;2.53;;;2.33;;
966;SDS011;56108;48.730;9.304;2023-07-31T03:48:09;2.60;;;2.00;;
966;SDS011;56108;48.730;9.304;2023-07-31T03:50:17;3.60;;;2.80;;
966;SDS011;56108;48.730;9.304;2023-07-31T03:52:25;4.78;;;2.95;;
966;SDS011;56108;48.730;9.304;2023-07-31T03:54:33;3.55;;;2.78;;
966;SDS011;56108;48.730;9.304;2023-07-31T03:56:42;3.60;;;3.15;;
966;SDS011;56108;48.730;9.304;2023-07-31T03:58:52;4.32;;;2.70;;
966;SDS011;56108;48.730;9.304;2023-07-31T04:01:00;2.78;;;2.28;;
966;SDS011;56108;48.730;9.304;2023-07-31T04:03:09;2.50;;;2.15;;
966;SDS011;56108;48.730;9.304;2023-07-31T04:05:17;3.60;;;2.60;;
966;SDS011;56108;48.730;9.304;2023-07-31T04:07:25;3.17;;;2.88;;
966;SDS011;56108;48.730;9.304;2023-07-31T04:09:33;4.05;;;2.60;;
966;SDS011;56108;48.730;9.304;2023-07-31T04:11:41;3.33;;;2.65;;
966;SDS011;56108;48.730;9.304;2023-07-31T04:13:49;2.30;;;2.10;;
966;SDS011;56108;48.730;9.304;2023-07-31T04:16:00;2.70;;;2.50;;
966;SDS011;56108;48.730;9.304;2023-07-31T04:18:08;3.40;;;2.60;;
966;SDS011;56108;48.730;9.304;2023-07-31T04:20:16;2.60;;;2.40;;
966;SDS011;56108;48.730;9.304;2023-07-31T04:22:24;2.35;;;2.15;;
966;SDS011;56108;48.730;9.304;2023-07-31T04:24:33;2.28;;;2.15;;
966;SDS011;56108;48.730;9.304;2023-07-31T04:26:41;4.45;;;3.28;;
966;SDS011;56108;48.730;9.304;2023-07-31T04:28:49;8.73;;;2.95;;
966;SDS011;56108;48.730;9.304;2023-07-31T04:31:00;6.18;;;3.22;;
966;SDS011;56108;48.730;9.304;2023-07-31T04:33:08;3.22;;;2.70;;
966;SDS011;56108;48.730;9.304;2023-07-31T04:35:16;2.80;;;2.42;;
966;SDS011;56108;48.730;9.304;2023-07-31T04:37:24;2.85;;;2.55;;
966;SDS011;56108;48.730;9.304;2023-07-31T04:39:32;3.45;;;3.00;;
966;SDS011;56108;48.730;9.304;2023-07-31T04:41:40;4.85;;;2.47;;
966;SDS011;56108;48.730;9.304;2023-07-31T04:43:48;2.90;;;2.70;;
966;SDS011;56108;48.730;9.304;2023-07-31T04:45:56;3.03;;;2.47;;
966;SDS011;56108;48.730;9.304;2023-07-31T04:48:07;4.80;;;3.13;;
966;SDS011;56108;48.730;9.304;2023-07-31T04:50:15;3.05;;;2.55;;
966;SDS011;56108;48.730;9.304;2023-07-31T04:52:23;2.72;;;2.53;;
966;SDS011;56108;48.730;9.304;2023-07-31T04:54:34;2.72;;;2.45;;
966;SDS011;56108;48.730;9.304;2023-07-31T04:56:42;2.40;;;2.20;;
966;SDS011;56108;48.730;9.304;2023-07-31T04:58:50;2.38;;;2.17;;
966;SDS011;56108;48.730;9.304;2023-07-31T05:00:55;2.35;;;2.15;;
966;SDS011;56108;48.730;9.304;2023-07-31T05:03:03;2.50;;;2.03;;
966;SDS011;56108;48.730;9.304;2023-07-31T05:05:15;3.17;;;2.40;;
966;SDS011;56108;48.730;9.304;2023-07-31T05:07:24;5.03;;;3.03;;
966;SDS011;56108;48.730;9.304;2023-07-31T05:09:32;2.72;;;2.53;;
966;SDS011;56108;48.730;9.304;2023-07-31T05:11:37;2.00;;;1.90;;
966;SDS011;56108;48.730;9.304;2023-07-31T05:13:47;7.25;;;2.67;;
966;SDS011;56108;48.730;9.304;2023-07-31T05:15:55;2.72;;;2.53;;
966;SDS011;56108;48.730;9.304;2023-07-31T05:18:07;4.88;;;2.25;;
966;SDS011;56108;48.730;9.304;2023-07-31T05:20:15;2.15;;;1.95;;
966;SDS011;56108;48.730;9.304;2023-07-31T05:22:23;2.33;;;2.22;;
966;SDS011;56108;48.730;9.304;2023-07-31T05:24:31;2.55;;;2.00;;
966;SDS011;56108;48.730;9.304;2023-07-31T05:26:39;3.55;;;2.58;;
966;SDS011;56108;48.730;9.304;2023-07-31T05:28:47;2.50;;;2.30;;
966;SDS011;56108;48.730;9.304;2023-07-31T05:30:58;2.50;;;2.30;;
966;SDS011;56108;48.730;9.304;2023-07-31T05:33:09;4.30;;;2.90;;
966;SDS011;56108;48.730;9.304;2023-07-31T05:35:18;2.95;;;2.65;;
966;SDS011;56108;48.730;9.304;2023-07-31T05:37:30;2.45;;;2.15;;
966;SDS011;56108;48.730;9.304;2023-07-31T05:39:38;4.43;;;1.90;;
966;SDS011;56108;48.730;9.304;2023-07-31T05:41:46;2.00;;;1.88;;
966;SDS011;56108;48.730;9.304;2023-07-31T05:43:54;6.32;;;2.67;;
966;SDS011;56108;48.730;9.304;2023-07-31T05:46:02;2.13;;;1.80;;
966;SDS011;56108;48.730;9.304;2023-07-31T05:48:14;1.80;;;1.70;;
966;SDS011;56108;48.730;9.304;2023-07-31T05:50:22;1.95;;;1.83;;
966;SDS011;56108;48.730;9.304;2023-07-31T05:52:30;2.13;;;1.98;;
966;SDS011;56108;48.730;9.304;2023-07-31T05:54:38;2.10;;;1.80;;
966;SDS011;56108;48.730;9.304;2023-07-31T05:56:46;1.60;;;1.50;;
966;SDS011;56108;48.730;9.304;2023-07-31T05:58:54;1.70;;;1.60;;
966;SDS011;56108;48.730;9.304;2023-07-31T06:01:02;1.67;;;1.57;;
966;SDS011;56108;48.730;9.304;2023-07-31T06:03:11;1.40;;;1.30;;
966;SDS011;56108;48.730;9.304;2023-07-31T06:05:22;1.50;;;1.40;;
966;SDS011;56108;48.730;9.304;2023-07-31T06:07:30;3.33;;;2.57;;
966;SDS011;56108;48.730;9.304;2023-07-31T06:09:39;1.53;;;1.43;;
966;SDS011;56108;48.730;9.304;2023-07-31T06:11:46;1.63;;;1.53;;
966;SDS011;56108;48.730;9.304;2023-07-31T06:13:55;1.70;;;1.60;;
966;SDS011;56108;48.730;9.304;2023-07-31T06:16:03;1.77;;;1.53;;
966;SDS011;56108;48.730;9.304;2023-07-31T06:18:14;2.53;;;1.37;;
966;SDS011;56108;48.730;9.304;2023-07-31T06:20:22;1.67;;;1.57;;
966;SDS011;56108;48.730;9.304;2023-07-31T06:22:30;2.03;;;1.90;;
966;SDS011;56108;48.730;9.304;2023-07-31T06:24:38;2.23;;;1.97;;
966;SDS011;56108;48.730;9.304;2023-07-31T06:26:47;2.40;;;1.20;;
966;SDS011;56108;48.730;9.304;2023-07-31T06:28:58;1.77;;;1.67;;
966;SDS011;56108;48.730;9.304;2023-07-31T06:31:06;1.30;;;1.20;;
966;SDS011;56108;48.730;9.304;2023-07-31T06:33:17;2.87;;;1.47;;
966;SDS011;56108;48.730;9.304;2023-07-31T06:35:25;1.40;;;1.30;;
966;SDS011;56108;48.730;9.304;2023-07-31T06:37:33;1.67;;;1.50;;
966;SDS011;56108;48.730;9.304;2023-07-31T06:39:42;2.07;;;1.53;;
966;SDS011;56108;48.730;9.304;2023-07-31T06:41:50;1.50;;;1.40;;
966;SDS011;56108;48.730;9.304;2023-07-31T06:43:58;1.10;;;1.03;;
966;SDS011;56108;48.730;9.304;2023-07-31T06:46:06;2.87;;;1.20;;
966;SDS011;56108;48.730;9.304;2023-07-31T06:48:17;1.70;;;1.60;;
966;SDS011;56108;48.730;9.304;2023-07-31T06:50:25;1.70;;;1.47;;
966;SDS011;56108;48.730;9.304;2023-07-31T06:52:33;1.60;;;1.50;;
966;SDS011;56108;48.730;9.304;2023-07-31T06:54:41;1.70;;;1.60;;
966;SDS011;56108;48.730;9.304;2023-07-31T06:56:49;1.43;;;1.10;;
966;SDS011;56108;48.730;9.304;2023-07-31T06:58:58;2.43;;;1.77;;
966;SDS011;56108;48.730;9.304;2023-07-31T07:01:06;1.90;;;1.80;;
966;SDS011;56108;48.730;9.304;2023-07-31T07:03:17;2.30;;;1.50;;
966;SDS011;56108;48.730;9.304;2023-07-31T07:05:26;1.70;;;1.60;;
966;SDS011;56108;48.730;9.304;2023-07-31T07:07:35;1.03;;;1.00;;
966;SDS011;56108;48.730;9.304;2023-07-31T07:09:41;1.83;;;1.73;;
966;SDS011;56108;48.730;9.304;2023-07-31T07:11:49;3.33;;;1.50;;
966;SDS011;56108;48.730;9.304;2023-07-31T07:13:57;2.30;;;1.20;;
966;SDS011;56108;48.730;9.304;2023-07-31T07:16:05;1.40;;;1.30;;
966;SDS011;56108;48.730;9.304;2023-07-31T07:18:17;1.60;;;1.40;;
966;SDS011;56108;48.730;9.304;2023-07-31T07:20:26;1.43;;;1.37;;
966;SDS011;56108;48.730;9.304;2023-07-31T07:22:34;1.77;;;1.37;;
966;SDS011;56108;48.730;9.304;2023-07-31T07:24:42;1.33;;;1.23;;
966;SDS011;56108;48.730;9.304;2023-07-31T07:26:50;1.53;;;1.43;;
966;SDS011;56108;48.730;9.304;2023-07-31T07:28:58;1.50;;;1.40;;
966;SDS011;56108;48.730;9.304;2023-07-31T07:31:07;2.03;;;1.53;;
966;SDS011;56108;48.730;9.304;2023-07-31T07:33:18;2.53;;;1.53;;
966;SDS011;56108;48.730;9.304;2023-07-31T07:35:26;3.43;;;1.63;;
966;SDS011;56108;48.730;9.304;2023-07-31T07:37:34;1.50;;;1.40;;
966;SDS011;56108;48.730;9.304;2023-07-31T07:39:43;1.77;;;1.67;;
966;SDS011;56108;48.730;9.304;2023-07-31T07:41:51;1.53;;;1.43;;
966;SDS011;56108;48.730;9.304;2023-07-31T07:44:00;2.03;;;1.90;;
966;SDS011;56108;48.730;9.304;2023-07-31T07:46:08;1.50;;;1.40;;
966;SDS011;56108;48.730;9.304;2023-07-31T07:48:19;1.40;;;1.30;;
966;SDS011;56108;48.730;9.304;2023-07-31T07:50:27;1.47;;;1.37;;
966;SDS011;56108;48.730;9.304;2023-07-31T07:52:36;1.30;;;1.30;;
966;SDS011;56108;48.730;9.304;2023-07-31T07:54:44;1.60;;;1.50;;
966;SDS011;56108;48.730;9.304;2023-07-31T07:56:50;1.67;;;1.57;;
966;SDS011;56108;48.730;9.304;2023-07-31T07:58:58;1.70;;;1.60;;
966;SDS011;56108;48.730;9.304;2023-07-31T08:01:06;1.90;;;1.80;;
966;SDS011;56108;48.730;9.304;2023-07-31T08:03:14;3.33;;;1.43;;
966;SDS011;56108;48.730;9.304;2023-07-31T08:05:25;2.40;;;1.53;;
966;SDS011;56108;48.730;9.304;2023-07-31T08:07:36;2.40;;;2.07;;
966;SDS011;56108;48.730;9.304;2023-07-31T08:09:44;1.70;;;1.60;;
966;SDS011;56108;48.730;9.304;2023-07-31T08:11:52;1.33;;;1.20;;
966;SDS011;56108;48.730;9.304;2023-07-31T08:14:02;2.30;;;1.53;;
966;SDS011;56108;48.730;9.304;2023-07-31T08:16:10;2.30;;;1.87;;
966;SDS011;56108;48.730;9.304;2023-07-31T08:18:19;2.30;;;2.07;;
966;SDS011;56108;48.730;9.304;2023-07-31T08:20:29;3.30;;;2.10;;
966;SDS011;56108;48.730;9.304;2023-07-31T08:22:37;1.47;;;1.37;;
966;SDS011;56108;48.730;9.304;2023-07-31T08:24:46;2.00;;;1.80;;
966;SDS011;56108;48.730;9.304;2023-07-31T08:26:54;1.70;;;1.60;;
966;SDS011;56108;48.730;9.304;2023-07-31T08:29:02;2.53;;;1.83;;
966;SDS011;56108;48.730;9.304;2023-07-31T08:31:10;1.90;;;1.77;;
966;SDS011;56108;48.730;9.304;2023-07-31T08:33:18;3.93;;;1.87;;
966;SDS011;56108;48.730;9.304;2023-07-31T08:35:26;2.10;;;1.50;;
966;SDS011;56108;48.730;9.304;2023-07-31T08:37:37;3.50;;;1.50;;
966;SDS011;56108;48.730;9.304;2023-07-31T08:39:46;1.77;;;1.40;;
966;SDS011;56108;48.730;9.304;2023-07-31T08:41:57;3.63;;;1.70;;
966;SDS011;56108;48.730;9.304;2023-07-31T08:44:06;1.90;;;1.73;;
966;SDS011;56108;48.730;9.304;2023-07-31T08:46:14;3.70;;;1.53;;
966;SDS011;56108;48.730;9.304;2023-07-31T08:48:23;1.63;;;1.53;;
966;SDS011;56108;48.730;9.304;2023-07-31T08:50:34;2.00;;;1.40;;
966;SDS011;56108;48.730;9.304;2023-07-31T08:52:43;5.30;;;1.47;;
966;SDS011;56108;48.730;9.304;2023-07-31T08:54:53;1.60;;;1.50;;
966;SDS011;56108;48.730;9.304;2023-07-31T08:57:01;1.50;;;1.40;;
966;SDS011;56108;48.730;9.304;2023-07-31T08:59:09;1.30;;;1.20;;
966;SDS011;56108;48.730;9.304;2023-07-31T09:01:19;1.73;;;1.47;;
966;SDS011;56108;48.730;9.304;2023-07-31T09:03:27;2.17;;;1.70;;
966;SDS011;56108;48.730;9.304;2023-07-31T09:05:44;2.03;;;1.83;;
966;SDS011;56108;48.730;9.304;2023-07-31T09:07:54;2.17;;;1.97;;
966;SDS011;56108;48.730;9.304;2023-07-31T09:10:04;2.90;;;2.07;;
966;SDS011;56108;48.730;9.304;2023-07-31T09:12:12;1.70;;;1.50;;
966;SDS011;56108;48.730;9.304;2023-07-31T09:14:20;1.60;;;1.50;;
966;SDS011;56108;48.730;9.304;2023-07-31T09:16:29;2.50;;;1.80;;
966;SDS011;56108;48.730;9.304;2023-07-31T09:18:48;2.00;;;1.80;;
966;SDS011;56108;48.730;9.304;2023-07-31T09:21:05;2.17;;;1.80;;
966;SDS011;56108;48.730;9.304;2023-07-31T09:23:13;1.60;;;1.50;;
966;SDS011;56108;48.730;9.304;2023-07-31T09:25:22;5.43;;;1.70;;
966;SDS011;56108;48.730;9.304;2023-07-31T09:27:38;2.40;;;1.63;;
966;SDS011;56108;48.730;9.304;2023-07-31T09:29:58;1.70;;;1.60;;
966;SDS011;56108;48.730;9.304;2023-07-31T09:32:07;1.30;;;1.20;;
966;SDS011;56108;48.730;9.304;2023-07-31T09:34:28;1.50;;;1.40;;
966;SDS011;56108;48.730;9.304;2023-07-31T09:36:44;2.33;;;1.73;;
966;SDS011;56108;48.730;9.304;2023-07-31T09:38:53;1.57;;;1.47;;
966;SDS011;56108;48.730;9.304;2023-07-31T09:40:59;1.77;;;1.67;;
966;SDS011;56108;48.730;9.304;2023-07-31T09:43:08;1.90;;;1.80;;
966;SDS011;56108;48.730;9.304;2023-07-31T09:45:33;2.77;;;2.57;;
966;SDS011;56108;48.730;9.304;2023-07-31T09:47:46;2.80;;;1.80;;
966;SDS011;56108;48.730;9.304;2023-07-31T09:49:55;1.93;;;1.70;;
966;SDS011;56108;48.730;9.304;2023-07-31T09:52:06;1.90;;;1.70;;
966;SDS011;56108;48.730;9.304;2023-07-31T09:54:19;2.30;;;1.60;;
966;SDS011;56108;48.730;9.304;2023-07-31T09:56:28;2.37;;;1.97;;
966;SDS011;56108;48.730;9.304;2023-07-31T09:58:37;1.50;;;1.40;;
966;SDS011;56108;48.730;9.304;2023-07-31T10:00:45;3.00;;;1.73;;
966;SDS011;56108;48.730;9.304;2023-07-31T10:02:54;3.97;;;1.87;;
966;SDS011;56108;48.730;9.304;2023-07-31T10:05:06;2.23;;;1.90;;
966;SDS011;56108;48.730;9.304;2023-07-31T10:07:17;2.60;;;2.23;;
966;SDS011;56108;48.730;9.304;2023-07-31T10:09:26;3.27;;;1.90;;
966;SDS011;56108;48.730;9.304;2023-07-31T10:11:41;4.40;;;1.90;;
966;SDS011;56108;48.730;9.304;2023-07-31T10:13:55;2.10;;;2.00;;
966;SDS011;56108;48.730;9.304;2023-07-31T10:16:04;1.77;;;1.60;;
966;SDS011;56108;48.730;9.304;2023-07-31T10:18:13;2.27;;;1.80;;
966;SDS011;56108;48.730;9.304;2023-07-31T10:20:23;4.53;;;1.90;;
966;SDS011;56108;48.730;9.304;2023-07-31T10:22:35;2.50;;;2.27;;
966;SDS011;56108;48.730;9.304;2023-07-31T10:24:44;2.30;;;1.60;;
966;SDS011;56108;48.730;9.304;2023-07-31T10:26:50;2.77;;;1.90;;
966;SDS011;56108;48.730;9.304;2023-07-31T10:29:00;5.03;;;1.90;;
966;SDS011;56108;48.730;9.304;2023-07-31T10:31:09;5.17;;;2.00;;
966;SDS011;56108;48.730;9.304;2023-07-31T10:33:18;1.70;;;1.60;;
966;SDS011;56108;48.730;9.304;2023-07-31T10:35:27;1.73;;;1.60;;
966;SDS011;56108;48.730;9.304;2023-07-31T10:37:41;1.73;;;1.57;;
966;SDS011;56108;48.730;9.304;2023-07-31T10:39:57;1.67;;;1.57;;
966;SDS011;56108;48.730;9.304;2023-07-31T10:42:10;2.33;;;1.90;;
966;SDS011;56108;48.730;9.304;2023-07-31T10:44:22;3.07;;;1.43;;
966;SDS011;56108;48.730;9.304;2023-07-31T10:46:30;3.00;;;1.47;;
966;SDS011;56108;48.730;9.304;2023-07-31T10:48:38;1.93;;;1.50;;
966;SDS011;56108;48.730;9.304;2023-07-31T10:50:48;2.60;;;2.00;;
966;SDS011;56108;48.730;9.304;2023-07-31T10:53:00;2.40;;;1.30;;
966;SDS011;56108;48.730;9.304;2023-07-31T10:57:38;6.50;;;5.80;;
966;SDS011;56108;48.730;9.304;2023-07-31T10:59:43;22.63;;;18.77;;
966;SDS011;56108;48.730;9.304;2023-07-31T11:01:52;16.17;;;13.80;;
966;SDS011;56108;48.730;9.304;2023-07-31T11:04:07;5.73;;;5.23;;
966;SDS011;56108;48.730;9.304;2023-07-31T11:06:19;2.70;;;2.50;;
966;SDS011;56108;48.730;9.304;2023-07-31T11:08:29;3.80;;;2.87;;
966;SDS011;56108;48.730;9.304;2023-07-31T11:10:38;2.77;;;2.00;;
966;SDS011;56108;48.730;9.304;2023-07-31T11:12:44;1.63;;;1.53;;
966;SDS011;56108;48.730;9.304;2023-07-31T11:14:54;1.80;;;1.70;;
966;SDS011;56108;48.730;9.304;2023-07-31T11:17:05;2.37;;;1.90;;
966;SDS011;56108;48.730;9.304;2023-07-31T11:19:14;2.10;;;1.93;;
966;SDS011;56108;48.730;9.304;2023-07-31T11:21:22;1.60;;;1.50;;
966;SDS011;56108;48.730;9.304;2023-07-31T11:23:36;3.17;;;1.80;;
966;SDS011;56108;48.730;9.304;2023-07-31T11:25:44;1.70;;;1.60;;
966;SDS011;56108;48.730;9.304;2023-07-31T11:27:52;2.10;;;1.47;;
966;SDS011;56108;48.730;9.304;2023-07-31T11:30:01;3.27;;;1.80;;
966;SDS011;56108;48.730;9.304;2023-07-31T11:32:15;1.80;;;1.70;;
966;SDS011;56108;48.730;9.304;2023-07-31T11:34:24;2.07;;;1.70;;
966;SDS011;56108;48.730;9.304;2023-07-31T11:36:35;1.83;;;1.60;;
966;SDS011;56108;48.730;9.304;2023-07-31T11:38:46;2.40;;;2.20;;
966;SDS011;56108;48.730;9.304;2023-07-31T11:40:55;3.87;;;2.00;;
966;SDS011;56108;48.730;9.304;2023-07-31T11:43:05;2.30;;;1.87;;
966;SDS011;56108;48.730;9.304;2023-07-31T11:45:14;1.93;;;1.83;;
966;SDS011;56108;48.730;9.304;2023-07-31T11:47:22;2.10;;;1.90;;
966;SDS011;56108;48.730;9.304;2023-07-31T11:49:30;1.60;;;1.50;;
966;SDS011;56108;48.730;9.304;2023-07-31T11:51:41;3.13;;;2.00;;
966;SDS011;56108;48.730;9.304;2023-07-31T11:53:52;2.40;;;1.60;;
966;SDS011;56108;48.730;9.304;2023-07-31T11:56:04;3.00;;;2.17;;
966;SDS011;56108;48.730;9.304;2023-07-31T11:58:16;3.70;;;2.37;;
966;SDS011;56108;48.730;9.304;2023-07-31T12:00:25;2.47;;;2.27;;
966;SDS011;56108;48.730;9.304;2023-07-31T12:02:34;1.90;;;1.80;;
966;SDS011;56108;48.730;9.304;2023-07-31T12:04:44;2.10;;;1.90;;
966;SDS011;56108;48.730;9.304;2023-07-31T12:06:55;2.30;;;2.10;;
966;SDS011;56108;48.730;9.304;2023-07-31T12:09:06;2.60;;;2.10;;
966;SDS011;56108;48.730;9.304;2023-07-31T12:11:11;2.30;;;2.17;;
966;SDS011;56108;48.730;9.304;2023-07-31T12:13:23;4.30;;;1.80;;
966;SDS011;56108;48.730;9.304;2023-07-31T12:15:33;4.00;;;2.20;;
966;SDS011;56108;48.730;9.304;2023-07-31T12:17:46;2.40;;;2.30;;
966;SDS011;56108;48.730;9.304;2023-07-31T12:19:52;2.40;;;2.07;;
966;SDS011;56108;48.730;9.304;2023-07-31T12:22:02;3.33;;;1.90;;
966;SDS011;56108;48.730;9.304;2023-07-31T12:24:22;1.70;;;1.60;;
966;SDS011;56108;48.730;9.304;2023-07-31T12:26:33;2.60;;;2.17;;
966;SDS011;56108;48.730;9.304;2023-07-31T12:28:43;1.60;;;1.50;;
966;SDS011;56108;48.730;9.304;2023-07-31T12:30:52;4.90;;;2.30;;
966;SDS011;56108;48.730;9.304;2023-07-31T12:33:03;2.13;;;2.03;;
966;SDS011;56108;48.730;9.304;2023-07-31T12:35:12;2.43;;;1.70;;
966;SDS011;56108;48.730;9.304;2023-07-31T12:37:20;1.93;;;1.83;;
966;SDS011;56108;48.730;9.304;2023-07-31T12:39:31;2.27;;;2.07;;
966;SDS011;56108;48.730;9.304;2023-07-31T12:41:39;1.90;;;1.80;;
966;SDS011;56108;48.730;9.304;2023-07-31T12:43:47;2.53;;;2.07;;
966;SDS011;56108;48.730;9.304;2023-07-31T12:45:56;2.50;;;2.30;;
966;SDS011;56108;48.730;9.304;2023-07-31T12:48:04;2.50;;;2.27;;
966;SDS011;56108;48.730;9.304;2023-07-31T12:50:12;3.07;;;2.10;;
966;SDS011;56108;48.730;9.304;2023-07-31T12:52:20;2.03;;;1.93;;
966;SDS011;56108;48.730;9.304;2023-07-31T12:54:31;3.83;;;1.93;;
966;SDS011;56108;48.730;9.304;2023-07-31T12:56:40;2.47;;;2.27;;
966;SDS011;56108;48.730;9.304;2023-07-31T12:58:48;2.30;;;2.10;;
966;SDS011;56108;48.730;9.304;2023-07-31T13:00:59;2.23;;;2.00;;
966;SDS011;56108;48.730;9.304;2023-07-31T13:03:07;2.77;;;1.90;;
966;SDS011;56108;48.730;9.304;2023-07-31T13:05:15;1.63;;;1.47;;
966;SDS011;56108;48.730;9.304;2023-07-31T13:07:24;2.60;;;2.40;;
966;SDS011;56108;48.730;9.304;2023-07-31T13:09:36;2.57;;;1.57;;
966;SDS011;56108;48.730;9.304;2023-07-31T13:11:48;1.73;;;1.63;;
966;SDS011;56108;48.730;9.304;2023-07-31T13:13:56;2.10;;;1.90;;
966;SDS011;56108;48.730;9.304;2023-07-31T13:16:04;2.40;;;2.20;;
966;SDS011;56108;48.730;9.304;2023-07-31T13:18:12;3.00;;;2.50;;
966;SDS011;56108;48.730;9.304;2023-07-31T13:20:20;2.37;;;2.17;;
966;SDS011;56108;48.730;9.304;2023-07-31T13:22:28;2.50;;;2.30;;
966;SDS011;56108;48.730;9.304;2023-07-31T13:24:39;2.60;;;2.37;;
966;SDS011;56108;48.730;9.304;2023-07-31T13:26:47;2.17;;;1.90;;
966;SDS011;56108;48.730;9.304;2023-07-31T13:28:55;3.50;;;2.53;;